Back to Top

Language: 

My Weather Underground Personal Weather Station Historical Data with Graphs...

Delerius Weather Station Historical Data
Daily Summary for July 29, 2017 Units:  English    Metric   Both
« Previous Day
Next Day »
Daily Weekly Monthly Yearly Custom
  High: Low: Average:
Temperature: 68.0 °F 55.2 °F 62 °F
Dew Point: 58.7 °F 50.2 °F 53.4 °F
Humidity: 94 % 54 % 74 %
Wind Speed: 13.0 mph 0.0 mph 7.7 mph
Wind Gust: 23.0 mph - -
Wind:- - WSW
Pressure: 29.71 in 29.55 in -
Precipitation: 0.00 in    
Historical Graphs
 
 
Tabular Data for July 29, 2017
Time Temperature Dew Point Pressure Wind Wind Speed Wind Gust Humidity Rainfall Rate (Hourly) solar Conditions
00:04 60.4 °F 58.7 °F 29.55 in West 7.0 mph 12.0 mph 94 % 0.00 in 0 W/m2
00:09 60.4 °F 58.7 °F 29.55 in West 7.0 mph 15.0 mph 94 % 0.00 in 0 W/m2
00:14 60.4 °F 58.7 °F 29.55 in West 9.0 mph 16.0 mph 94 % 0.00 in 0 W/m2
00:19 60.3 °F 58.5 °F 29.55 in West 9.0 mph 16.0 mph 94 % 0.00 in 0 W/m2
00:29 59.9 °F 57.9 °F 29.56 in West 8.0 mph 19.0 mph 93 % 0.00 in 0 W/m2
00:34 59.5 °F 57.5 °F 29.56 in West 10.0 mph 19.0 mph 93 % 0.00 in 0 W/m2
00:39 59.4 °F 57.0 °F 29.56 in West 10.0 mph 16.0 mph 92 % 0.00 in 0 W/m2
00:44 59.2 °F 56.9 °F 29.56 in West 10.0 mph 16.0 mph 92 % 0.00 in 0 W/m2
00:49 59.2 °F 56.9 °F 29.57 in West 10.0 mph 16.0 mph 92 % 0.00 in 0 W/m2
00:54 59.0 °F 56.7 °F 29.57 in West 10.0 mph 16.0 mph 92 % 0.00 in 0 W/m2
00:59 58.8 °F 56.5 °F 29.57 in West 10.0 mph 16.0 mph 92 % 0.00 in 0 W/m2
01:04 58.8 °F 56.5 °F 29.57 in WNW 9.0 mph 15.0 mph 92 % 0.00 in 0 W/m2
01:09 58.6 °F 56.3 °F 29.58 in West 9.0 mph 19.0 mph 92 % 0.00 in 0 W/m2
01:14 58.6 °F 56.3 °F 29.58 in WNW 9.0 mph 19.0 mph 92 % 0.00 in 0 W/m2
01:19 58.6 °F 56.3 °F 29.58 in WNW 9.0 mph 13.0 mph 92 % 0.00 in 0 W/m2
01:24 58.6 °F 56.0 °F 29.58 in West 9.0 mph 13.0 mph 91 % 0.00 in 0 W/m2
01:29 58.5 °F 55.8 °F 29.59 in West 9.0 mph 14.0 mph 91 % 0.00 in 0 W/m2
01:34 58.5 °F 56.1 °F 29.59 in West 8.0 mph 14.0 mph 92 % 0.00 in 0 W/m2
01:40 58.3 °F 56.0 °F 29.59 in West 9.0 mph 15.0 mph 92 % 0.00 in 0 W/m2
01:45 58.3 °F 55.7 °F 29.59 in West 10.0 mph 19.0 mph 91 % 0.00 in 0 W/m2
01:50 58.3 °F 55.7 °F 29.59 in West 10.0 mph 19.0 mph 91 % 0.00 in 0 W/m2
01:55 58.5 °F 55.8 °F 29.59 in West 11.0 mph 19.0 mph 91 % 0.00 in 0 W/m2
02:00 58.5 °F 55.5 °F 29.59 in West 10.0 mph 19.0 mph 90 % 0.00 in 0 W/m2
02:05 58.5 °F 55.5 °F 29.59 in West 9.0 mph 16.0 mph 90 % 0.00 in 0 W/m2
02:10 58.5 °F 55.5 °F 29.59 in West 10.0 mph 15.0 mph 90 % 0.00 in 0 W/m2
02:14 58.5 °F 55.5 °F 29.59 in West 9.0 mph 14.0 mph 90 % 0.00 in 0 W/m2
02:19 58.3 °F 55.4 °F 29.59 in West 8.0 mph 14.0 mph 90 % 0.00 in 0 W/m2
02:24 58.3 °F 55.4 °F 29.59 in West 9.0 mph 14.0 mph 90 % 0.00 in 0 W/m2
02:30 57.9 °F 55.0 °F 29.59 in West 9.0 mph 16.0 mph 90 % 0.00 in 0 W/m2
02:35 57.9 °F 55.0 °F 29.59 in West 9.0 mph 16.0 mph 90 % 0.00 in 0 W/m2
02:40 57.9 °F 54.7 °F 29.60 in West 10.0 mph 16.0 mph 89 % 0.00 in 0 W/m2
02:45 57.9 °F 54.7 °F 29.59 in West 11.0 mph 20.0 mph 89 % 0.00 in 0 W/m2
02:50 57.9 °F 54.4 °F 29.60 in West 11.0 mph 21.0 mph 88 % 0.00 in 0 W/m2
02:55 57.9 °F 54.4 °F 29.60 in West 11.0 mph 21.0 mph 88 % 0.00 in 0 W/m2
03:00 57.9 °F 54.1 °F 29.60 in West 10.0 mph 16.0 mph 87 % 0.00 in 0 W/m2
03:05 57.7 °F 53.9 °F 29.60 in West 10.0 mph 16.0 mph 87 % 0.00 in 0 W/m2
03:10 57.6 °F 53.7 °F 29.60 in West 11.0 mph 18.0 mph 87 % 0.00 in 0 W/m2
03:13 57.6 °F 53.7 °F 29.61 in West 11.0 mph 18.0 mph 87 % 0.00 in 0 W/m2
03:18 57.6 °F 53.7 °F 29.61 in West 10.0 mph 18.0 mph 87 % 0.00 in 0 W/m2
03:23 57.6 °F 53.7 °F 29.61 in West 9.0 mph 15.0 mph 87 % 0.00 in 0 W/m2
03:28 57.6 °F 54.0 °F 29.61 in West 8.0 mph 12.0 mph 88 % 0.00 in 0 W/m2
03:33 57.4 °F 53.9 °F 29.62 in West 8.0 mph 13.0 mph 88 % 0.00 in 0 W/m2
03:38 57.6 °F 54.0 °F 29.62 in West 9.0 mph 13.0 mph 88 % 0.00 in 0 W/m2
03:43 57.6 °F 54.0 °F 29.62 in West 8.0 mph 13.0 mph 88 % 0.00 in 0 W/m2
03:48 57.4 °F 53.9 °F 29.62 in West 9.0 mph 19.0 mph 88 % 0.00 in 0 W/m2
03:53 57.4 °F 53.9 °F 29.62 in West 10.0 mph 19.0 mph 88 % 0.00 in 0 W/m2
03:58 57.2 °F 53.4 °F 29.61 in West 10.0 mph 18.0 mph 87 % 0.00 in 0 W/m2
04:03 57.0 °F 53.2 °F 29.62 in West 10.0 mph 18.0 mph 87 % 0.00 in 0 W/m2
04:08 56.8 °F 52.7 °F 29.62 in West 10.0 mph 18.0 mph 86 % 0.00 in 0 W/m2
04:13 56.8 °F 52.7 °F 29.62 in West 10.0 mph 18.0 mph 86 % 0.00 in 0 W/m2
04:18 56.8 °F 52.7 °F 29.62 in West 9.0 mph 18.0 mph 86 % 0.00 in 0 W/m2
04:23 56.8 °F 52.7 °F 29.63 in West 8.0 mph 18.0 mph 86 % 0.00 in 0 W/m2
04:28 56.7 °F 52.5 °F 29.63 in West 7.0 mph 10.0 mph 86 % 0.00 in 0 W/m2
04:33 56.7 °F 52.8 °F 29.63 in West 6.0 mph 10.0 mph 87 % 0.00 in 0 W/m2
04:38 56.7 °F 52.8 °F 29.63 in WSW 4.0 mph 10.0 mph 87 % 0.00 in 0 W/m2
04:43 56.5 °F 52.7 °F 29.63 in WSW 4.0 mph 10.0 mph 87 % 0.00 in 0 W/m2
04:48 56.5 °F 53.0 °F 29.63 in West 6.0 mph 10.0 mph 88 % 0.00 in 0 W/m2
04:53 56.5 °F 53.0 °F 29.64 in West 8.0 mph 15.0 mph 88 % 0.00 in 0 W/m2
04:58 56.5 °F 53.0 °F 29.64 in West 9.0 mph 15.0 mph 88 % 0.00 in 0 W/m2
05:03 56.5 °F 52.7 °F 29.64 in WSW 9.0 mph 15.0 mph 87 % 0.00 in 0 W/m2
05:08 56.3 °F 52.5 °F 29.64 in WSW 8.0 mph 15.0 mph 87 % 0.00 in 0 W/m2
05:13 56.1 °F 52.3 °F 29.64 in West 8.0 mph 16.0 mph 87 % 0.00 in 0 W/m2
05:18 55.9 °F 52.1 °F 29.64 in West 8.0 mph 16.0 mph 87 % 0.00 in 5 W/m2
05:23 55.9 °F 52.1 °F 29.65 in WSW 8.0 mph 15.0 mph 87 % 0.00 in 7 W/m2
05:28 55.8 °F 51.9 °F 29.65 in WSW 7.0 mph 13.0 mph 87 % 0.00 in 9 W/m2
05:33 55.8 °F 51.9 °F 29.65 in WSW 7.0 mph 12.0 mph 87 % 0.00 in 9 W/m2
05:38 55.8 °F 51.6 °F 29.65 in WSW 8.0 mph 18.0 mph 86 % 0.00 in 9 W/m2
05:48 55.6 °F 51.5 °F 29.65 in WSW 6.0 mph 12.0 mph 86 % 0.00 in 11 W/m2
05:53 55.4 °F 51.3 °F 29.65 in WSW 6.0 mph 10.0 mph 86 % 0.00 in 14 W/m2
05:58 55.4 °F 51.3 °F 29.65 in WSW 6.0 mph 10.0 mph 86 % 0.00 in 23 W/m2
06:03 55.4 °F 51.3 °F 29.66 in SW 5.0 mph 8.0 mph 86 % 0.00 in 32 W/m2
06:05 55.2 °F 51.1 °F 29.65 in SW 5.0 mph 8.0 mph 86 % 0.00 in 37 W/m2
06:10 55.2 °F 51.4 °F 29.66 in SW 5.0 mph 8.0 mph 87 % 0.00 in 40 W/m2
06:15 55.2 °F 51.4 °F 29.66 in SW 5.0 mph 10.0 mph 87 % 0.00 in 35 W/m2
06:20 55.4 °F 51.6 °F 29.66 in SW 6.0 mph 10.0 mph 87 % 0.00 in 69 W/m2
06:25 55.6 °F 51.8 °F 29.66 in SW 5.0 mph 8.0 mph 87 % 0.00 in 58 W/m2
06:30 55.6 °F 51.8 °F 29.66 in SSW 6.0 mph 11.0 mph 87 % 0.00 in 113 W/m2
06:35 55.9 °F 51.8 °F 29.66 in SSW 6.0 mph 11.0 mph 86 % 0.00 in 104 W/m2
06:40 56.1 °F 52.3 °F 29.66 in SW 5.0 mph 10.0 mph 87 % 0.00 in 121 W/m2
06:46 56.5 °F 52.3 °F 29.66 in SSW 5.0 mph 10.0 mph 86 % 0.00 in 142 W/m2
06:51 56.7 °F 52.5 °F 29.66 in SW 6.0 mph 9.0 mph 86 % 0.00 in 86 W/m2
06:56 56.8 °F 52.4 °F 29.67 in SW 6.0 mph 10.0 mph 85 % 0.00 in 32 W/m2
07:01 56.8 °F 52.4 °F 29.67 in SW 7.0 mph 16.0 mph 85 % 0.00 in 35 W/m2
07:06 56.8 °F 52.1 °F 29.67 in SW 7.0 mph 16.0 mph 84 % 0.00 in 39 W/m2
07:11 57.0 °F 52.2 °F 29.67 in SW 7.0 mph 12.0 mph 84 % 0.00 in 42 W/m2
07:16 57.4 °F 52.3 °F 29.67 in SW 7.0 mph 13.0 mph 83 % 0.00 in 193 W/m2
07:21 57.6 °F 52.8 °F 29.67 in SW 7.0 mph 13.0 mph 84 % 0.00 in 236 W/m2
07:26 57.7 °F 52.3 °F 29.67 in SW 7.0 mph 13.0 mph 82 % 0.00 in 246 W/m2
07:31 57.9 °F 52.5 °F 29.68 in SW 7.0 mph 13.0 mph 82 % 0.00 in 262 W/m2
07:36 58.3 °F 52.5 °F 29.68 in SW 7.0 mph 12.0 mph 81 % 0.00 in 278 W/m2
07:41 58.5 °F 52.6 °F 29.67 in SW 7.0 mph 12.0 mph 81 % 0.00 in 285 W/m2
07:46 58.8 °F 53.0 °F 29.68 in SW 6.0 mph 11.0 mph 81 % 0.00 in 308 W/m2
07:51 59.2 °F 53.4 °F 29.68 in SW 7.0 mph 12.0 mph 81 % 0.00 in 330 W/m2
07:56 59.5 °F 52.7 °F 29.68 in WSW 8.0 mph 13.0 mph 78 % 0.00 in 369 W/m2
08:01 59.9 °F 53.0 °F 29.68 in WSW 7.0 mph 13.0 mph 78 % 0.00 in 380 W/m2
08:06 60.3 °F 53.0 °F 29.68 in WSW 6.0 mph 12.0 mph 77 % 0.00 in 459 W/m2
08:11 60.6 °F 52.6 °F 29.68 in WSW 7.0 mph 15.0 mph 75 % 0.00 in 287 W/m2
08:16 60.6 °F 52.6 °F 29.68 in WSW 8.0 mph 15.0 mph 75 % 0.00 in 313 W/m2
08:21 60.6 °F 52.6 °F 29.68 in WSW 8.0 mph 14.0 mph 75 % 0.00 in 450 W/m2
08:26 60.6 °F 52.6 °F 29.68 in WSW 8.0 mph 15.0 mph 75 % 0.00 in 476 W/m2
08:31 61.0 °F 53.0 °F 29.68 in WSW 9.0 mph 18.0 mph 75 % 0.00 in 548 W/m2
08:36 61.0 °F 52.6 °F 29.68 in WSW 10.0 mph 18.0 mph 74 % 0.00 in 422 W/m2
08:41 61.0 °F 52.6 °F 29.68 in WSW 10.0 mph 15.0 mph 74 % 0.00 in 547 W/m2
08:46 61.3 °F 53.0 °F 29.68 in WSW 9.0 mph 15.0 mph 74 % 0.00 in 566 W/m2
08:51 61.5 °F 52.8 °F 29.68 in WSW 9.0 mph 15.0 mph 73 % 0.00 in 134 W/m2
09:01 61.9 °F 53.1 °F 29.69 in WSW 8.0 mph 18.0 mph 73 % 0.00 in 172 W/m2
09:06 61.7 °F 52.6 °F 29.69 in WSW 9.0 mph 18.0 mph 72 % 0.00 in 192 W/m2
09:11 61.3 °F 52.6 °F 29.69 in WSW 10.0 mph 18.0 mph 73 % 0.00 in 227 W/m2
09:16 61.2 °F 52.4 °F 29.69 in SW 10.0 mph 16.0 mph 73 % 0.00 in 172 W/m2
09:22 61.2 °F 53.2 °F 29.69 in SW 8.0 mph 14.0 mph 75 % 0.00 in 596 W/m2
09:27 61.9 °F 53.9 °F 29.69 in SW 8.0 mph 16.0 mph 75 % 0.00 in 585 W/m2
09:32 62.2 °F 53.5 °F 29.70 in WSW 10.0 mph 20.0 mph 73 % 0.00 in 666 W/m2
09:42 63.3 °F 53.4 °F 29.70 in WSW 10.0 mph 20.0 mph 70 % 0.00 in 236 W/m2
09:47 63.1 °F 53.2 °F 29.70 in WSW 11.0 mph 21.0 mph 70 % 0.00 in 211 W/m2
09:52 63.0 °F 52.6 °F 29.70 in WSW 11.0 mph 21.0 mph 69 % 0.00 in 178 W/m2
09:57 63.0 °F 52.6 °F 29.70 in WSW 11.0 mph 16.0 mph 69 % 0.00 in 729 W/m2
10:02 63.7 °F 52.9 °F 29.71 in WSW 11.0 mph 21.0 mph 68 % 0.00 in 782 W/m2
10:07 63.9 °F 52.7 °F 29.70 in WSW 11.0 mph 21.0 mph 67 % 0.00 in 756 W/m2
10:12 64.4 °F 53.6 °F 29.71 in WSW 10.0 mph 20.0 mph 68 % 0.00 in 914 W/m2
10:17 64.9 °F 53.7 °F 29.71 in WSW 9.0 mph 20.0 mph 67 % 0.00 in 870 W/m2
10:22 65.3 °F 54.5 °F 29.71 in SW 9.0 mph 18.0 mph 68 % 0.00 in 577 W/m2
10:27 65.5 °F 53.4 °F 29.70 in WSW 9.0 mph 16.0 mph 65 % 0.00 in 223 W/m2
10:32 64.9 °F 52.9 °F 29.71 in WSW 10.0 mph 18.0 mph 65 % 0.00 in 345 W/m2
10:37 64.4 °F 52.4 °F 29.71 in WSW 11.0 mph 19.0 mph 65 % 0.00 in 292 W/m2
10:42 63.9 °F 51.9 °F 29.71 in SW 12.0 mph 19.0 mph 65 % 0.00 in 148 W/m2
10:47 63.3 °F 52.2 °F 29.71 in SW 11.0 mph 19.0 mph 67 % 0.00 in 167 W/m2
10:52 63.1 °F 52.4 °F 29.71 in WSW 9.0 mph 16.0 mph 68 % 0.00 in 267 W/m2
10:57 63.1 °F 52.8 °F 29.71 in WSW 9.0 mph 16.0 mph 69 % 0.00 in 930 W/m2
11:02 64.0 °F 53.7 °F 29.71 in WSW 9.0 mph 20.0 mph 69 % 0.00 in 956 W/m2
11:07 65.1 °F 53.9 °F 29.71 in WSW 10.0 mph 22.0 mph 67 % 0.00 in 997 W/m2
11:12 64.9 °F 52.5 °F 29.70 in WSW 12.0 mph 22.0 mph 64 % 0.00 in 325 W/m2
11:17 64.8 °F 52.7 °F 29.70 in WSW 11.0 mph 20.0 mph 65 % 0.00 in 795 W/m2
11:22 65.1 °F 53.5 °F 29.70 in WSW 10.0 mph 15.0 mph 66 % 0.00 in 1107 W/m2
11:27 65.7 °F 53.1 °F 29.71 in WSW 10.0 mph 20.0 mph 64 % 0.00 in 408 W/m2
11:32 65.7 °F 53.1 °F 29.71 in SW 11.0 mph 20.0 mph 64 % 0.00 in 459 W/m2
11:37 65.1 °F 52.6 °F 29.71 in SW 12.0 mph 20.0 mph 64 % 0.00 in 283 W/m2
11:42 64.9 °F 52.9 °F 29.71 in WSW 11.0 mph 20.0 mph 65 % 0.00 in 295 W/m2
11:47 64.8 °F 53.5 °F 29.71 in WSW 9.0 mph 20.0 mph 67 % 0.00 in 329 W/m2
11:52 64.6 °F 53.0 °F 29.71 in WSW 8.0 mph 14.0 mph 66 % 0.00 in 327 W/m2
11:57 64.8 °F 53.1 °F 29.71 in WSW 8.0 mph 16.0 mph 66 % 0.00 in 290 W/m2
12:02 64.9 °F 53.3 °F 29.71 in WSW 8.0 mph 16.0 mph 66 % 0.00 in 445 W/m2
12:07 64.9 °F 52.5 °F 29.71 in WSW 12.0 mph 23.0 mph 64 % 0.00 in 343 W/m2
12:09 64.9 °F 52.5 °F 29.71 in WSW 12.0 mph 23.0 mph 64 % 0.00 in 345 W/m2
12:14 64.6 °F 52.1 °F 29.71 in WSW 13.0 mph 21.0 mph 64 % 0.00 in 427 W/m2
12:19 64.8 °F 52.3 °F 29.71 in WSW 12.0 mph 20.0 mph 64 % 0.00 in 584 W/m2
12:24 65.1 °F 52.6 °F 29.71 in WSW 11.0 mph 20.0 mph 64 % 0.00 in 427 W/m2
12:29 65.3 °F 52.8 °F 29.71 in SW 11.0 mph 23.0 mph 64 % 0.00 in 390 W/m2
12:34 64.8 °F 52.3 °F 29.71 in SW 12.0 mph 23.0 mph 64 % 0.00 in 315 W/m2
12:39 64.4 °F 52.4 °F 29.71 in SW 13.0 mph 21.0 mph 65 % 0.00 in 260 W/m2
12:44 64.0 °F 52.9 °F 29.71 in SW 12.0 mph 20.0 mph 67 % 0.00 in 255 W/m2
12:49 63.9 °F 53.1 °F 29.71 in SW 11.0 mph 18.0 mph 68 % 0.00 in 246 W/m2
12:54 63.9 °F 52.3 °F 29.71 in SW 11.0 mph 20.0 mph 66 % 0.00 in 204 W/m2
12:59 63.7 °F 52.5 °F 29.71 in SW 11.0 mph 20.0 mph 67 % 0.00 in 237 W/m2
13:04 63.5 °F 52.7 °F 29.71 in SW 12.0 mph 21.0 mph 68 % 0.00 in 258 W/m2
13:09 63.3 °F 53.0 °F 29.71 in SW 12.0 mph 21.0 mph 69 % 0.00 in 339 W/m2
13:14 63.3 °F 53.0 °F 29.71 in SW 11.0 mph 18.0 mph 69 % 0.00 in 308 W/m2
13:19 63.7 °F 52.9 °F 29.71 in SW 10.0 mph 18.0 mph 68 % 0.00 in 346 W/m2
13:24 63.9 °F 52.7 °F 29.71 in SW 11.0 mph 20.0 mph 67 % 0.00 in 492 W/m2
13:29 64.0 °F 52.9 °F 29.71 in SW 11.0 mph 20.0 mph 67 % 0.00 in 496 W/m2
13:39 64.6 °F 53.0 °F 29.70 in SW 10.0 mph 18.0 mph 66 % 0.00 in 519 W/m2
13:44 64.9 °F 52.5 °F 29.70 in SW 10.0 mph 18.0 mph 64 % 0.00 in 666 W/m2
13:49 64.9 °F 52.5 °F 29.70 in SW 12.0 mph 19.0 mph 64 % 0.00 in 729 W/m2
13:55 65.5 °F 52.1 °F 29.70 in SW 13.0 mph 19.0 mph 62 % 0.00 in 563 W/m2
14:00 65.7 °F 52.3 °F 29.70 in SW 12.0 mph 21.0 mph 62 % 0.00 in 506 W/m2
14:05 66.4 °F 53.4 °F 29.70 in SW 11.0 mph 21.0 mph 63 % 0.00 in 1125 W/m2
14:10 66.6 °F 53.1 °F 29.70 in SW 10.0 mph 16.0 mph 62 % 0.00 in 1176 W/m2
14:20 67.5 °F 53.1 °F 29.69 in SW 11.0 mph 19.0 mph 60 % 0.00 in 893 W/m2
14:25 67.6 °F 52.3 °F 29.69 in SW 11.0 mph 19.0 mph 58 % 0.00 in 482 W/m2
14:30 67.3 °F 52.5 °F 29.69 in SW 11.0 mph 18.0 mph 59 % 0.00 in 879 W/m2
14:35 67.3 °F 52.0 °F 29.69 in SW 9.0 mph 14.0 mph 58 % 0.00 in 283 W/m2
14:40 67.3 °F 52.5 °F 29.69 in SW 9.0 mph 18.0 mph 59 % 0.00 in 1060 W/m2
14:45 67.3 °F 52.5 °F 29.69 in SW 9.0 mph 19.0 mph 59 % 0.00 in 432 W/m2
14:50 67.3 °F 52.0 °F 29.69 in SW 10.0 mph 19.0 mph 58 % 0.00 in 661 W/m2
14:55 67.1 °F 52.3 °F 29.69 in SSW 11.0 mph 18.0 mph 59 % 0.00 in 673 W/m2
15:00 67.1 °F 51.4 °F 29.69 in SW 10.0 mph 16.0 mph 57 % 0.00 in 578 W/m2
15:05 66.9 °F 51.2 °F 29.69 in SW 11.0 mph 16.0 mph 57 % 0.00 in 561 W/m2
15:10 66.7 °F 51.0 °F 29.68 in SW 11.0 mph 18.0 mph 57 % 0.00 in 605 W/m2
15:15 66.7 °F 51.5 °F 29.68 in SW 11.0 mph 18.0 mph 58 % 0.00 in 438 W/m2
15:20 66.7 °F 51.0 °F 29.68 in SW 11.0 mph 20.0 mph 57 % 0.00 in 422 W/m2
15:25 66.6 °F 50.8 °F 29.68 in SW 11.0 mph 20.0 mph 57 % 0.00 in 508 W/m2
15:30 66.9 °F 51.7 °F 29.68 in SSW 10.0 mph 18.0 mph 58 % 0.00 in 613 W/m2
15:35 67.5 °F 52.2 °F 29.68 in SSW 9.0 mph 18.0 mph 58 % 0.00 in 457 W/m2
15:40 67.8 °F 51.1 °F 29.68 in WSW 9.0 mph 15.0 mph 55 % 0.00 in 587 W/m2
15:45 67.8 °F 50.6 °F 29.68 in WSW 11.0 mph 19.0 mph 54 % 0.00 in 679 W/m2
15:50 67.8 °F 51.1 °F 29.68 in SW 11.0 mph 19.0 mph 55 % 0.00 in 285 W/m2
15:55 67.3 °F 50.6 °F 29.68 in SW 11.0 mph 19.0 mph 55 % 0.00 in 668 W/m2
16:01 67.5 °F 51.2 °F 29.68 in SW 10.0 mph 16.0 mph 56 % 0.00 in 596 W/m2
16:06 67.8 °F 51.1 °F 29.68 in WSW 9.0 mph 16.0 mph 55 % 0.00 in 656 W/m2
16:11 68.0 °F 50.7 °F 29.68 in WSW 9.0 mph 14.0 mph 54 % 0.00 in 271 W/m2
16:16 67.5 °F 51.2 °F 29.68 in SW 9.0 mph 14.0 mph 56 % 0.00 in 299 W/m2
16:21 67.1 °F 50.9 °F 29.67 in SW 9.0 mph 20.0 mph 56 % 0.00 in 318 W/m2
16:26 66.9 °F 50.2 °F 29.67 in SW 10.0 mph 22.0 mph 55 % 0.00 in 415 W/m2
16:31 67.3 °F 50.6 °F 29.67 in SW 10.0 mph 22.0 mph 55 % 0.00 in 345 W/m2
16:36 67.1 °F 50.4 °F 29.67 in SW 10.0 mph 19.0 mph 55 % 0.00 in 336 W/m2
16:41 67.1 °F 50.9 °F 29.67 in SW 9.0 mph 16.0 mph 56 % 0.00 in 352 W/m2
16:46 67.3 °F 50.6 °F 29.67 in SW 10.0 mph 18.0 mph 55 % 0.00 in 345 W/m2
16:51 67.3 °F 51.0 °F 29.67 in WSW 10.0 mph 18.0 mph 56 % 0.00 in 327 W/m2
16:56 67.1 °F 51.4 °F 29.67 in SW 8.0 mph 14.0 mph 57 % 0.00 in 262 W/m2
17:01 67.3 °F 52.0 °F 29.67 in SW 7.0 mph 11.0 mph 58 % 0.00 in 264 W/m2
17:06 67.3 °F 51.5 °F 29.67 in SW 7.0 mph 13.0 mph 57 % 0.00 in 352 W/m2
17:11 67.3 °F 52.0 °F 29.66 in SW 7.0 mph 13.0 mph 58 % 0.00 in 401 W/m2
17:16 67.5 °F 52.2 °F 29.66 in SW 7.0 mph 12.0 mph 58 % 0.00 in 489 W/m2
17:21 67.6 °F 51.9 °F 29.66 in WSW 7.0 mph 11.0 mph 57 % 0.00 in 469 W/m2
17:26 67.6 °F 52.3 °F 29.66 in SW 7.0 mph 11.0 mph 58 % 0.00 in 269 W/m2
17:31 67.3 °F 51.5 °F 29.66 in SW 7.0 mph 15.0 mph 57 % 0.00 in 316 W/m2
17:36 67.3 °F 52.0 °F 29.66 in SW 7.0 mph 15.0 mph 58 % 0.00 in 232 W/m2
17:46 67.5 °F 52.2 °F 29.66 in SW 6.0 mph 9.0 mph 58 % 0.00 in 230 W/m2
17:51 67.1 °F 52.3 °F 29.66 in SSW 6.0 mph 10.0 mph 59 % 0.00 in 190 W/m2
17:56 66.7 °F 52.4 °F 29.66 in SSW 7.0 mph 13.0 mph 60 % 0.00 in 216 W/m2
18:01 66.7 °F 52.4 °F 29.66 in SSW 7.0 mph 13.0 mph 60 % 0.00 in 218 W/m2
18:06 66.7 °F 52.4 °F 29.66 in SSW 6.0 mph 12.0 mph 60 % 0.00 in 246 W/m2
18:11 66.7 °F 52.4 °F 29.65 in SSW 6.0 mph 10.0 mph 60 % 0.00 in 197 W/m2
18:16 66.7 °F 52.4 °F 29.65 in SSW 7.0 mph 12.0 mph 60 % 0.00 in 155 W/m2
18:21 66.6 °F 52.2 °F 29.65 in SSW 8.0 mph 12.0 mph 60 % 0.00 in 142 W/m2
18:26 66.6 °F 52.7 °F 29.65 in SSW 6.0 mph 10.0 mph 61 % 0.00 in 135 W/m2
18:31 66.6 °F 52.7 °F 29.65 in SW 6.0 mph 9.0 mph 61 % 0.00 in 130 W/m2
18:36 66.6 °F 53.1 °F 29.65 in SW 4.0 mph 9.0 mph 62 % 0.00 in 153 W/m2
18:41 66.6 °F 53.1 °F 29.65 in SSW 4.0 mph 8.0 mph 62 % 0.00 in 142 W/m2
18:46 66.4 °F 53.0 °F 29.65 in SSW 5.0 mph 9.0 mph 62 % 0.00 in 125 W/m2
18:51 66.2 °F 52.8 °F 29.64 in SSW 6.0 mph 9.0 mph 62 % 0.00 in 97 W/m2
18:56 66.2 °F 52.8 °F 29.64 in SSW 6.0 mph 9.0 mph 62 % 0.00 in 100 W/m2
19:01 66.0 °F 52.6 °F 29.64 in SSW 5.0 mph 9.0 mph 62 % 0.00 in 105 W/m2
19:06 66.0 °F 53.1 °F 29.64 in South 5.0 mph 13.0 mph 63 % 0.00 in 91 W/m2
19:11 65.8 °F 52.9 °F 29.64 in SSW 5.0 mph 13.0 mph 63 % 0.00 in 83 W/m2
19:14 65.8 °F 52.9 °F 29.64 in SSW 6.0 mph 10.0 mph 63 % 0.00 in 79 W/m2
19:19 65.7 °F 53.1 °F 29.64 in SSW 6.0 mph 10.0 mph 64 % 0.00 in 63 W/m2
19:24 65.5 °F 53.4 °F 29.64 in SSW 6.0 mph 10.0 mph 65 % 0.00 in 56 W/m2
19:29 65.3 °F 53.2 °F 29.64 in SSW 5.0 mph 10.0 mph 65 % 0.00 in 47 W/m2
19:34 65.3 °F 53.2 °F 29.64 in SSW 4.0 mph 8.0 mph 65 % 0.00 in 49 W/m2
19:39 65.1 °F 53.1 °F 29.64 in SSW 5.0 mph 11.0 mph 65 % 0.00 in 53 W/m2
19:41 65.1 °F 53.5 °F 29.64 in SSW 5.0 mph 11.0 mph 66 % 0.00 in 54 W/m2
19:46 64.9 °F 53.3 °F 29.64 in SSW 5.0 mph 11.0 mph 66 % 0.00 in 51 W/m2
19:51 64.9 °F 53.7 °F 29.64 in SSW 5.0 mph 10.0 mph 67 % 0.00 in 39 W/m2
19:56 64.8 °F 53.5 °F 29.63 in SSW 6.0 mph 10.0 mph 67 % 0.00 in 26 W/m2
20:01 64.8 °F 53.5 °F 29.63 in SSW 7.0 mph 11.0 mph 67 % 0.00 in 21 W/m2
20:06 64.6 °F 53.8 °F 29.63 in SSW 7.0 mph 14.0 mph 68 % 0.00 in 18 W/m2
20:11 64.4 °F 54.4 °F 29.63 in South 7.0 mph 14.0 mph 70 % 0.00 in 16 W/m2
20:16 64.0 °F 54.1 °F 29.63 in South 6.0 mph 11.0 mph 70 % 0.00 in 11 W/m2
20:27 63.7 °F 54.5 °F 29.63 in SSW 7.0 mph 12.0 mph 72 % 0.00 in 7 W/m2
20:32 63.3 °F 54.5 °F 29.63 in SSW 7.0 mph 12.0 mph 73 % 0.00 in 5 W/m2
20:37 63.3 °F 54.5 °F 29.63 in SSW 7.0 mph 12.0 mph 73 % 0.00 in 5 W/m2
20:42 63.1 °F 54.7 °F 29.63 in SSW 6.0 mph 9.0 mph 74 % 0.00 in 5 W/m2
20:47 63.1 °F 54.7 °F 29.63 in SSW 5.0 mph 9.0 mph 74 % 0.00 in 0 W/m2
20:52 63.0 °F 54.9 °F 29.63 in SSW 5.0 mph 9.0 mph 75 % 0.00 in 0 W/m2
20:57 63.0 °F 54.9 °F 29.63 in SSW 5.0 mph 9.0 mph 75 % 0.00 in 0 W/m2
21:02 62.8 °F 54.7 °F 29.62 in SSW 7.0 mph 12.0 mph 75 % 0.00 in 0 W/m2
21:07 62.6 °F 54.6 °F 29.62 in SSW 6.0 mph 12.0 mph 75 % 0.00 in 0 W/m2
21:12 62.6 °F 54.6 °F 29.62 in SSW 6.0 mph 10.0 mph 75 % 0.00 in 0 W/m2
21:17 62.4 °F 54.4 °F 29.63 in SSW 6.0 mph 9.0 mph 75 % 0.00 in 0 W/m2
21:22 62.4 °F 54.8 °F 29.62 in SW 5.0 mph 8.0 mph 76 % 0.00 in 0 W/m2
21:27 62.4 °F 54.8 °F 29.62 in SW 4.0 mph 8.0 mph 76 % 0.00 in 0 W/m2
21:32 62.2 °F 54.6 °F 29.62 in SW 3.0 mph 8.0 mph 76 % 0.00 in 0 W/m2
21:37 62.2 °F 54.9 °F 29.62 in SW 3.0 mph 5.0 mph 77 % 0.00 in 0 W/m2
21:42 62.2 °F 54.9 °F 29.62 in SW 3.0 mph 5.0 mph 77 % 0.00 in 0 W/m2
21:47 62.2 °F 54.9 °F 29.62 in SW 2.0 mph 5.0 mph 77 % 0.00 in 0 W/m2
21:52 62.1 °F 55.1 °F 29.62 in SW 1.0 mph 4.0 mph 78 % 0.00 in 0 W/m2
21:57 62.1 °F 55.1 °F 29.62 in SW 3.0 mph 6.0 mph 78 % 0.00 in 0 W/m2
22:02 61.9 °F 55.3 °F 29.62 in SW 4.0 mph 8.0 mph 79 % 0.00 in 0 W/m2
22:07 61.7 °F 55.5 °F 29.61 in SW 4.0 mph 8.0 mph 80 % 0.00 in 0 W/m2
22:12 61.5 °F 55.3 °F 29.62 in SW 3.0 mph 6.0 mph 80 % 0.00 in 0 W/m2
22:17 61.3 °F 55.5 °F 29.62 in SW 4.0 mph 7.0 mph 81 % 0.00 in 0 W/m2
22:18 61.3 °F 55.5 °F 29.62 in SW 4.0 mph 7.0 mph 81 % 0.00 in 0 W/m2
22:23 61.0 °F 55.4 °F 29.62 in SW 3.0 mph 7.0 mph 82 % 0.00 in 0 W/m2
22:28 61.0 °F 55.4 °F 29.61 in SSW 1.0 mph 5.0 mph 82 % 0.00 in 0 W/m2
22:33 60.8 °F 55.6 °F 29.61 in SSW 1.0 mph 4.0 mph 83 % 0.00 in 0 W/m2
22:38 60.6 °F 55.4 °F 29.61 in SW 2.0 mph 7.0 mph 83 % 0.00 in 0 W/m2
22:43 60.6 °F 55.4 °F 29.61 in SW 3.0 mph 7.0 mph 83 % 0.00 in 0 W/m2
22:44 60.6 °F 55.4 °F 29.61 in SW 3.0 mph 7.0 mph 83 % 0.00 in 0 W/m2
22:49 60.4 °F 55.3 °F 29.61 in WSW 2.0 mph 7.0 mph 83 % 0.00 in 0 W/m2
22:54 60.4 °F 55.3 °F 29.61 in Calm   5.0 mph 83 % 0.00 in 0 W/m2
22:59 60.4 °F 55.6 °F 29.61 in Calm     84 % 0.00 in 0 W/m2
23:04 60.4 °F 55.6 °F 29.61 in Calm   1.0 mph 84 % 0.00 in 0 W/m2
23:09 60.4 °F 55.6 °F 29.61 in West 1.0 mph 5.0 mph 84 % 0.00 in 0 W/m2
23:14 60.3 °F 55.4 °F 29.61 in West 2.0 mph 5.0 mph 84 % 0.00 in 0 W/m2
23:19 60.3 °F 55.4 °F 29.61 in West 1.0 mph 5.0 mph 84 % 0.00 in 0 W/m2
23:24 60.1 °F 55.2 °F 29.61 in West 1.0 mph 5.0 mph 84 % 0.00 in 0 W/m2
23:29 60.1 °F 55.6 °F 29.60 in Calm   3.0 mph 85 % 0.00 in 0 W/m2
23:34 60.1 °F 55.6 °F 29.61 in Calm   2.0 mph 85 % 0.00 in 0 W/m2
23:39 59.9 °F 55.4 °F 29.60 in Calm     85 % 0.00 in 0 W/m2
23:44 59.7 °F 55.2 °F 29.60 in Calm     85 % 0.00 in 0 W/m2
23:49 59.7 °F 55.2 °F 29.60 in Calm     85 % 0.00 in 0 W/m2
23:54 59.5 °F 55.0 °F 29.60 in Calm     85 % 0.00 in 0 W/m2
23:59 59.5 °F 55.0 °F 29.60 in Calm     85 % 0.00 in 0 W/m2
Delerius-Weather
Compliments of Weather Underground - 2.25 mb

Data updates at regular intervals.